createdAt,value
2023-06-02T00:01:33.122Z,13.00
2023-06-02T00:04:01.131Z,12.95
2023-06-02T00:06:32.080Z,12.94
2023-06-02T00:08:59.256Z,12.66
2023-06-02T00:11:26.526Z,12.75
2023-06-02T00:13:53.245Z,12.73
2023-06-02T00:16:19.864Z,12.63
2023-06-02T00:18:46.502Z,12.56
2023-06-02T00:21:13.623Z,12.48
2023-06-02T00:23:40.112Z,12.40
2023-06-02T00:26:06.615Z,12.37
2023-06-02T00:28:33.118Z,12.45
2023-06-02T00:30:59.683Z,12.45
2023-06-02T00:33:26.220Z,12.22
2023-06-02T00:35:52.822Z,12.31
2023-06-02T00:38:19.282Z,12.34
2023-06-02T00:40:45.925Z,12.28
2023-06-02T00:43:12.638Z,12.04
2023-06-02T00:45:39.150Z,12.15
2023-06-02T00:48:06.277Z,12.20
2023-06-02T00:50:33.643Z,12.17
2023-06-02T00:53:01.064Z,12.09
2023-06-02T00:55:31.431Z,12.05
2023-06-02T00:58:00.089Z,12.08
2023-06-02T01:00:28.032Z,12.12
2023-06-02T01:02:55.099Z,12.09
2023-06-02T01:05:21.852Z,11.98
2023-06-02T01:07:52.436Z,11.99
2023-06-02T01:10:22.410Z,11.99
2023-06-02T01:12:50.087Z,12.00
2023-06-02T01:15:16.699Z,11.78
2023-06-02T01:17:46.719Z,11.69
2023-06-02T01:20:16.545Z,11.63
2023-06-02T01:23:06.377Z,11.75
2023-06-02T01:25:33.619Z,11.66
2023-06-02T01:28:00.270Z,11.66
2023-06-02T01:30:27.347Z,11.64
2023-06-02T01:33:10.561Z,11.59
2023-06-02T01:35:43.988Z,11.65
2023-06-02T01:38:11.534Z,11.69
2023-06-02T01:40:39.185Z,11.59
2023-06-02T01:43:07.072Z,11.52
2023-06-02T01:45:34.792Z,11.39
2023-06-02T01:48:06.063Z,11.43
2023-06-02T01:50:35.317Z,11.53
2023-06-02T01:53:01.944Z,11.59
2023-06-02T01:55:28.640Z,11.64
2023-06-02T01:57:55.193Z,11.59
2023-06-02T02:00:22.118Z,11.62
2023-06-02T02:02:51.678Z,11.63
2023-06-02T02:05:18.770Z,11.66
2023-06-02T02:07:47.111Z,11.69
2023-06-02T02:10:14.381Z,11.67
2023-06-02T02:12:41.598Z,11.66
2023-06-02T02:15:08.629Z,11.63
2023-06-02T02:17:36.151Z,11.58
2023-06-02T02:20:06.822Z,11.57
2023-06-02T02:22:33.783Z,11.50
2023-06-02T02:25:00.904Z,11.57
2023-06-02T02:27:28.057Z,11.55
2023-06-02T02:29:54.649Z,11.48
2023-06-02T02:32:21.569Z,10.82
2023-06-02T02:34:49.522Z,11.11
2023-06-02T02:37:17.770Z,11.04
2023-06-02T02:39:44.336Z,11.06
2023-06-02T02:42:11.007Z,10.99
2023-06-02T02:44:37.559Z,10.89
2023-06-02T02:47:04.175Z,10.90
2023-06-02T02:49:30.754Z,11.01
2023-06-02T02:51:57.883Z,11.06
2023-06-02T02:54:25.197Z,11.07
2023-06-02T02:56:52.219Z,11.06
2023-06-02T02:59:18.786Z,11.03
2023-06-02T03:01:47.771Z,11.10
2023-06-02T03:04:23.306Z,11.14
2023-06-02T03:06:51.476Z,11.12
2023-06-02T03:09:18.008Z,11.01
2023-06-02T03:11:44.759Z,10.98
2023-06-02T03:14:11.585Z,11.04
2023-06-02T03:16:43.192Z,11.06
2023-06-02T03:19:10.109Z,11.03
2023-06-02T03:21:43.278Z,10.93
2023-06-02T03:24:17.703Z,10.99
2023-06-02T03:26:45.203Z,11.05
2023-06-02T03:29:13.673Z,11.04
2023-06-02T03:31:42.617Z,11.07
2023-06-02T03:34:09.292Z,11.01
2023-06-02T03:36:36.328Z,11.05
2023-06-02T03:39:06.844Z,10.98
2023-06-02T03:41:34.741Z,11.06
2023-06-02T03:44:02.353Z,11.13
2023-06-02T03:46:29.309Z,11.22
2023-06-02T03:48:56.336Z,11.21
2023-06-02T03:51:23.169Z,11.28
2023-06-02T03:53:52.540Z,11.28
2023-06-02T03:56:21.100Z,11.33
2023-06-02T03:58:47.664Z,11.44
2023-06-02T04:01:14.807Z,11.51
2023-06-02T04:03:42.880Z,11.62
2023-06-02T04:06:09.997Z,11.71
2023-06-02T04:08:37.061Z,11.73
2023-06-02T04:11:04.232Z,11.78
2023-06-02T04:13:31.076Z,11.92
2023-06-02T04:15:57.797Z,12.11
2023-06-02T04:18:24.352Z,12.16
2023-06-02T04:20:50.942Z,12.45
2023-06-02T04:23:17.504Z,12.88
2023-06-02T04:25:44.132Z,13.57
2023-06-02T04:28:10.644Z,14.40
2023-06-02T04:30:39.934Z,15.17
2023-06-02T04:33:06.559Z,15.95
2023-06-02T04:35:33.888Z,16.50
2023-06-02T04:38:00.477Z,17.33
2023-06-02T04:40:26.926Z,17.93
2023-06-02T04:42:53.461Z,18.60
2023-06-02T04:45:21.643Z,19.09
2023-06-02T04:47:49.138Z,19.34
2023-06-02T04:50:15.943Z,20.00
2023-06-02T04:52:43.804Z,20.41
2023-06-02T04:55:11.522Z,20.69
2023-06-02T04:57:38.767Z,21.43
2023-06-02T05:00:06.504Z,21.94
2023-06-02T05:02:33.444Z,22.18
2023-06-02T05:05:00.392Z,21.92
2023-06-02T05:07:27.090Z,22.24
2023-06-02T05:09:53.615Z,22.46
2023-06-02T05:12:20.199Z,22.42
2023-06-02T05:14:46.803Z,21.97
2023-06-02T05:17:13.359Z,22.85
2023-06-02T05:19:46.672Z,23.48
2023-06-02T05:22:13.790Z,23.76
2023-06-02T05:24:40.406Z,23.89
2023-06-02T05:27:08.310Z,24.16
2023-06-02T05:29:34.853Z,24.06
2023-06-02T05:32:01.454Z,23.95
2023-06-02T05:34:28.034Z,24.26
2023-06-02T05:36:54.595Z,24.39
2023-06-02T05:39:21.112Z,24.70
2023-06-02T05:41:47.576Z,24.49
2023-06-02T05:44:14.137Z,25.15
2023-06-02T05:46:40.966Z,25.60
2023-06-02T05:49:07.472Z,25.45
2023-06-02T05:51:33.983Z,24.98
2023-06-02T05:54:01.415Z,25.35
2023-06-02T05:56:27.940Z,25.39
2023-06-02T05:58:54.451Z,26.06
2023-06-02T06:01:20.919Z,25.69
2023-06-02T06:03:47.491Z,25.84
2023-06-02T06:06:14.038Z,25.73
2023-06-02T06:08:41.204Z,26.30
2023-06-02T06:11:07.717Z,26.59
2023-06-02T06:13:34.517Z,26.25
2023-06-02T06:16:01.167Z,26.50
2023-06-02T06:18:27.852Z,26.19
2023-06-02T06:20:54.414Z,27.19
2023-06-02T06:23:21.137Z,26.40
2023-06-02T06:25:47.772Z,26.58
2023-06-02T06:28:14.341Z,25.54
2023-06-02T06:30:41.258Z,25.35
2023-06-02T06:33:09.870Z,26.11
2023-06-02T06:35:36.793Z,27.01
2023-06-02T06:38:04.750Z,27.08
2023-06-02T06:40:32.561Z,27.46
2023-06-02T06:43:02.964Z,27.25
2023-06-02T06:45:34.915Z,27.25
2023-06-02T06:48:01.527Z,27.30
2023-06-02T06:50:28.757Z,27.59
2023-06-02T06:52:55.509Z,27.83
2023-06-02T06:55:22.050Z,27.87
2023-06-02T06:57:48.637Z,28.15
2023-06-02T07:00:15.970Z,27.53
2023-06-02T07:02:44.832Z,27.68
2023-06-02T07:05:11.874Z,28.26
2023-06-02T07:07:38.466Z,27.65
2023-06-02T07:10:05.823Z,27.09
2023-06-02T07:12:32.430Z,27.93
2023-06-02T07:14:59.158Z,28.03
2023-06-02T07:17:26.198Z,28.28
2023-06-02T07:19:53.159Z,27.92
2023-06-02T07:22:19.753Z,28.59
2023-06-02T07:24:53.820Z,28.31
2023-06-02T07:27:21.496Z,29.29
2023-06-02T07:29:49.478Z,28.47
2023-06-02T07:32:23.239Z,28.00
2023-06-02T07:34:52.819Z,28.71
2023-06-02T07:37:24.715Z,28.76
2023-06-02T07:39:55.649Z,29.26
2023-06-02T07:42:25.168Z,29.28
2023-06-02T07:44:51.747Z,28.93
2023-06-02T07:47:18.416Z,28.89
2023-06-02T07:49:45.188Z,27.44
2023-06-02T07:52:11.913Z,28.11
2023-06-02T07:54:41.167Z,27.13
2023-06-02T07:57:10.431Z,27.81
2023-06-02T07:59:38.158Z,29.11
2023-06-02T08:02:08.314Z,29.14
2023-06-02T08:04:40.424Z,29.28
2023-06-02T08:07:12.081Z,29.84
2023-06-02T08:13:26.008Z,30.11
2023-06-02T08:16:19.839Z,29.15
2023-06-02T08:18:47.011Z,29.15
2023-06-02T08:21:18.444Z,29.43
2023-06-02T08:23:50.596Z,28.60
2023-06-02T08:26:23.990Z,29.35
2023-06-02T08:43:25.615Z,29.12
2023-06-02T09:45:55.106Z,28.94
2023-06-02T09:48:31.457Z,28.52
2023-06-02T09:51:07.084Z,29.00
2023-06-02T09:53:44.365Z,29.24
2023-06-02T09:56:18.376Z,29.23
2023-06-02T09:58:52.823Z,29.88
2023-06-02T10:13:26.733Z,28.77
2023-06-02T10:16:26.504Z,28.52
2023-06-02T10:19:11.273Z,28.40
2023-06-02T10:22:03.698Z,28.84
2023-06-02T10:24:57.911Z,28.06
2023-06-02T10:27:41.833Z,27.72
2023-06-02T10:38:49.605Z,27.84
2023-06-02T10:41:26.418Z,27.73
2023-06-02T10:44:29.775Z,27.89
2023-06-02T10:47:22.510Z,27.86
2023-06-02T10:50:09.338Z,28.27
2023-06-02T10:53:04.013Z,28.12
2023-06-02T10:55:36.771Z,27.82
2023-06-02T10:58:09.014Z,28.23
2023-06-02T11:00:40.694Z,27.84
2023-06-02T11:03:12.888Z,27.57
2023-06-02T11:05:44.994Z,27.92
2023-06-02T11:08:20.998Z,28.15
2023-06-02T11:11:03.711Z,28.03
2023-06-02T11:13:35.737Z,27.80
2023-06-02T11:16:05.772Z,27.38
2023-06-02T11:18:32.811Z,27.08
2023-06-02T11:21:06.070Z,27.20
2023-06-02T11:23:37.322Z,26.51
2023-06-02T11:26:12.338Z,26.54
2023-06-02T11:28:47.658Z,27.23
2023-06-02T11:31:24.561Z,27.24
2023-06-02T11:36:43.294Z,26.81
2023-06-02T11:39:19.911Z,26.94
2023-06-02T11:41:57.621Z,26.37
2023-06-02T11:51:58.084Z,26.30
2023-06-02T12:13:41.566Z,26.64
2023-06-02T12:31:19.589Z,26.53
2023-06-02T12:33:46.936Z,25.77
2023-06-02T12:36:14.369Z,25.94
2023-06-02T12:43:28.312Z,26.60
2023-06-02T12:46:00.344Z,26.68
2023-06-02T12:48:31.605Z,26.81
2023-06-02T12:51:06.126Z,27.11
2023-06-02T12:53:40.391Z,26.87
2023-06-02T12:56:08.536Z,26.07
2023-06-02T12:58:35.445Z,25.99
2023-06-02T13:01:02.638Z,25.38
2023-06-02T13:04:32.323Z,25.64
2023-06-02T13:07:06.923Z,25.20
2023-06-02T13:13:29.752Z,26.35
2023-06-02T13:16:03.068Z,26.33
2023-06-02T13:18:30.365Z,25.77
2023-06-02T13:21:50.074Z,25.31
2023-06-02T13:35:45.085Z,25.74
2023-06-02T14:13:40.370Z,25.16
2023-06-02T14:16:27.547Z,25.12
2023-06-02T14:19:02.605Z,25.41
2023-06-02T14:21:35.284Z,25.44
2023-06-02T14:24:09.521Z,25.24
2023-06-02T14:26:40.756Z,25.11
2023-06-02T14:45:17.478Z,25.06
2023-06-02T15:15:49.211Z,24.44
2023-06-02T15:20:59.321Z,24.94
2023-06-02T15:23:39.292Z,24.75
2023-06-02T15:26:14.032Z,24.72
2023-06-02T15:28:45.691Z,24.50
2023-06-02T15:31:17.688Z,24.26
2023-06-02T15:33:50.856Z,24.32
2023-06-02T15:36:23.341Z,24.29
2023-06-02T15:38:55.687Z,24.27
2023-06-02T15:41:29.935Z,24.49
2023-06-02T15:44:01.154Z,24.34
2023-06-02T15:46:32.094Z,24.12
2023-06-02T15:49:07.649Z,24.17
2023-06-02T15:51:42.289Z,24.39
2023-06-02T15:54:14.419Z,24.38
2023-06-02T15:56:54.185Z,24.38
2023-06-02T15:59:27.709Z,24.23
2023-06-02T16:02:00.135Z,24.21
2023-06-02T16:04:30.573Z,23.96
2023-06-02T16:07:10.312Z,23.98
2023-06-02T16:09:42.239Z,23.90
2023-06-02T16:12:09.492Z,23.90
2023-06-02T16:14:37.703Z,23.92
2023-06-02T16:17:07.881Z,23.67
2023-06-02T16:22:44.524Z,23.75
2023-06-02T16:25:14.756Z,23.59
2023-06-02T16:27:45.067Z,23.66
2023-06-02T16:30:16.323Z,23.61
2023-06-02T16:32:44.424Z,23.45
2023-06-02T16:35:15.217Z,23.59
2023-06-02T16:37:42.268Z,23.56
2023-06-02T16:40:09.867Z,23.55
2023-06-02T16:42:36.647Z,23.44
2023-06-02T16:45:03.549Z,23.42
2023-06-02T16:47:30.472Z,23.40
2023-06-02T16:49:57.735Z,23.34
2023-06-02T16:52:24.997Z,23.34
2023-06-02T16:55:01.598Z,23.30
2023-06-02T16:57:29.354Z,23.23
2023-06-02T16:59:56.176Z,23.15
2023-06-02T17:02:23.630Z,23.26
2023-06-02T17:04:50.328Z,22.98
2023-06-02T17:07:17.310Z,22.91
2023-06-02T17:09:43.915Z,22.86
2023-06-02T17:12:10.542Z,22.87
2023-06-02T17:14:37.377Z,22.94
2023-06-02T17:17:04.227Z,22.89
2023-06-02T17:19:30.964Z,22.75
2023-06-02T17:21:57.808Z,22.76
2023-06-02T17:24:26.305Z,22.70
2023-06-02T17:26:53.128Z,22.58
2023-06-02T17:29:19.821Z,22.44
2023-06-02T17:31:46.478Z,22.30
2023-06-02T17:34:13.360Z,22.33
2023-06-02T17:36:42.649Z,22.24
2023-06-02T17:39:09.434Z,22.18
2023-06-02T17:41:36.267Z,22.09
2023-06-02T17:44:02.882Z,22.03
2023-06-02T17:46:30.484Z,21.92
2023-06-02T17:48:57.451Z,21.72
2023-06-02T17:51:26.079Z,21.50
2023-06-02T17:53:52.847Z,21.47
2023-06-02T17:56:19.910Z,21.32
2023-06-02T17:58:46.684Z,21.23
2023-06-02T18:01:13.426Z,21.11
2023-06-02T18:03:40.145Z,21.07
2023-06-02T18:06:07.556Z,21.04
2023-06-02T18:08:34.043Z,20.98
2023-06-02T18:11:00.555Z,20.89
2023-06-02T18:13:27.245Z,20.71
2023-06-02T18:15:53.796Z,20.75
2023-06-02T18:18:20.341Z,20.64
2023-06-02T18:20:47.420Z,20.53
2023-06-02T18:23:13.940Z,20.47
2023-06-02T18:25:41.123Z,20.37
2023-06-02T18:28:07.644Z,20.28
2023-06-02T18:30:34.098Z,20.24
2023-06-02T18:33:00.809Z,20.21
2023-06-02T18:35:27.352Z,20.13
2023-06-02T18:37:56.443Z,20.06
2023-06-02T18:40:23.622Z,19.98
2023-06-02T18:42:50.698Z,19.95
2023-06-02T18:45:17.205Z,19.81
2023-06-02T18:47:43.763Z,19.74
2023-06-02T18:50:10.611Z,19.52
2023-06-02T18:52:37.419Z,19.51
2023-06-02T18:55:04.146Z,19.30
2023-06-02T18:57:30.702Z,19.17
2023-06-02T18:59:57.699Z,19.07
2023-06-02T19:02:24.256Z,18.85
2023-06-02T19:04:52.599Z,18.84
2023-06-02T19:07:19.218Z,18.79
2023-06-02T19:09:45.929Z,18.57
2023-06-02T19:12:12.423Z,18.56
2023-06-02T19:14:38.919Z,18.47
2023-06-02T19:17:06.332Z,18.42
2023-06-02T19:19:32.917Z,18.37
2023-06-02T19:21:59.397Z,18.30
2023-06-02T19:24:25.891Z,18.26
2023-06-02T19:26:52.616Z,18.14
2023-06-02T19:29:19.663Z,18.05
2023-06-02T19:31:46.830Z,17.97
2023-06-02T19:34:13.373Z,17.91
2023-06-02T19:36:41.444Z,17.75
2023-06-02T19:39:09.280Z,17.80
2023-06-02T19:41:36.054Z,17.63
2023-06-02T19:44:02.898Z,17.58
2023-06-02T19:46:29.622Z,17.49
2023-06-02T19:48:56.377Z,17.47
2023-06-02T19:51:22.878Z,17.42
2023-06-02T19:53:49.423Z,17.37
2023-06-02T19:56:16.014Z,17.06
2023-06-02T19:58:42.745Z,17.20
2023-06-02T20:01:09.728Z,17.16
2023-06-02T20:03:36.635Z,17.16
2023-06-02T20:06:03.357Z,17.10
2023-06-02T20:08:29.984Z,17.02
2023-06-02T20:10:56.543Z,16.86
2023-06-02T20:13:23.283Z,16.79
2023-06-02T20:15:50.409Z,16.76
2023-06-02T20:18:17.241Z,16.77
2023-06-02T20:20:43.950Z,16.73
2023-06-02T20:23:10.458Z,16.64
2023-06-02T20:25:36.924Z,16.57
2023-06-02T20:28:04.751Z,16.44
2023-06-02T20:30:31.683Z,16.43
2023-06-02T20:32:59.104Z,16.44
2023-06-02T20:35:25.941Z,16.29
2023-06-02T20:37:52.460Z,16.29
2023-06-02T20:40:19.317Z,16.22
2023-06-02T20:42:46.008Z,16.07
2023-06-02T20:45:14.149Z,16.12
2023-06-02T20:47:41.534Z,16.08
2023-06-02T20:50:08.495Z,16.08
2023-06-02T20:52:35.037Z,16.07
2023-06-02T20:55:01.954Z,15.99
2023-06-02T20:57:28.477Z,15.93
2023-06-02T20:59:55.008Z,15.94
2023-06-02T21:02:21.653Z,15.88
2023-06-02T21:04:48.122Z,15.90
2023-06-02T21:07:14.628Z,15.68
2023-06-02T21:09:41.150Z,15.75
2023-06-02T21:12:08.286Z,15.65
2023-06-02T21:14:34.808Z,15.60
2023-06-02T21:17:01.442Z,15.52
2023-06-02T21:19:28.018Z,15.50
2023-06-02T21:21:54.539Z,15.42
2023-06-02T21:24:21.104Z,15.41
2023-06-02T21:26:47.571Z,15.34
2023-06-02T21:29:14.113Z,15.28
2023-06-02T21:34:22.045Z,15.24
2023-06-02T21:36:48.510Z,15.29
2023-06-02T21:39:14.971Z,15.19
2023-06-02T21:41:43.384Z,15.15
2023-06-02T21:44:09.809Z,15.09
2023-06-02T21:46:36.632Z,15.10
2023-06-02T21:51:41.597Z,15.03
2023-06-02T21:54:08.141Z,14.98
2023-06-02T21:56:35.932Z,14.92
2023-06-02T21:59:04.790Z,14.93
2023-06-02T22:01:31.955Z,14.89
2023-06-02T22:03:58.782Z,14.74
2023-06-02T22:06:25.919Z,14.79
2023-06-02T22:08:52.514Z,14.83
2023-06-02T22:11:23.894Z,14.75
2023-06-02T22:13:51.668Z,14.75
2023-06-02T22:16:18.437Z,14.64
2023-06-02T22:18:45.122Z,14.58
2023-06-02T22:21:12.950Z,14.51
2023-06-02T22:23:39.542Z,14.49
2023-06-02T22:26:06.094Z,14.52
2023-06-02T22:28:32.910Z,14.50
2023-06-02T22:30:59.447Z,14.46
2023-06-02T22:33:26.047Z,14.48
2023-06-02T22:35:52.555Z,14.35
2023-06-02T22:38:19.122Z,14.20
2023-06-02T22:40:45.688Z,14.27
2023-06-02T22:43:12.154Z,14.17
2023-06-02T22:45:38.667Z,14.24
2023-06-02T22:48:05.277Z,14.18
2023-06-02T22:50:31.883Z,14.16
2023-06-02T22:52:58.696Z,14.16
2023-06-02T22:55:25.252Z,14.14
2023-06-02T22:57:51.816Z,14.09
2023-06-02T23:00:18.341Z,14.09
2023-06-02T23:02:44.943Z,13.97
2023-06-02T23:05:11.473Z,14.02
2023-06-02T23:07:39.748Z,13.98
2023-06-02T23:10:07.005Z,13.91
2023-06-02T23:12:33.463Z,13.78
2023-06-02T23:14:59.968Z,13.90
2023-06-02T23:17:26.550Z,13.89
2023-06-02T23:19:53.042Z,13.99
2023-06-02T23:22:19.707Z,13.89
2023-06-02T23:24:46.263Z,13.82
2023-06-02T23:27:13.916Z,13.77
2023-06-02T23:29:41.372Z,13.74
2023-06-02T23:32:08.141Z,13.77
2023-06-02T23:34:34.915Z,13.69
2023-06-02T23:37:01.416Z,13.72
2023-06-02T23:39:27.917Z,13.66
2023-06-02T23:41:54.395Z,13.66
2023-06-02T23:44:21.729Z,13.50
2023-06-02T23:46:48.365Z,13.55
2023-06-02T23:49:15.048Z,13.56
2023-06-02T23:51:41.946Z,13.44
2023-06-02T23:54:08.505Z,13.40
2023-06-02T23:56:35.058Z,13.37
2023-06-02T23:59:01.612Z,13.40
